sensor_id;sensor_type;location;lat;lon;timestamp;P1;durP1;ratioP1;P2;durP2;ratioP2
45114;SDS011;30877;43.706;10.780;2023-06-22T00:01:34;3.78;;;3.22;;
45114;SDS011;30877;43.706;10.780;2023-06-22T00:04:02;10.25;;;4.15;;
45114;SDS011;30877;43.706;10.780;2023-06-22T00:06:31;5.45;;;3.10;;
45114;SDS011;30877;43.706;10.780;2023-06-22T00:08:59;6.28;;;3.58;;
45114;SDS011;30877;43.706;10.780;2023-06-22T00:11:29;5.25;;;3.53;;
45114;SDS011;30877;43.706;10.780;2023-06-22T00:16:42;5.68;;;3.13;;
45114;SDS011;30877;43.706;10.780;2023-06-22T00:19:10;7.25;;;3.63;;
45114;SDS011;30877;43.706;10.780;2023-06-22T00:21:38;4.72;;;3.38;;
45114;SDS011;30877;43.706;10.780;2023-06-22T00:24:06;5.75;;;3.33;;
45114;SDS011;30877;43.706;10.780;2023-06-22T00:26:36;7.82;;;3.55;;
45114;SDS011;30877;43.706;10.780;2023-06-22T00:32:37;4.68;;;3.08;;
45114;SDS011;30877;43.706;10.780;2023-06-22T00:35:28;3.95;;;3.40;;
45114;SDS011;30877;43.706;10.780;2023-06-22T00:37:56;4.25;;;3.75;;
45114;SDS011;30877;43.706;10.780;2023-06-22T00:40:31;4.18;;;3.40;;
45114;SDS011;30877;43.706;10.780;2023-06-22T00:43:02;6.35;;;3.60;;
45114;SDS011;30877;43.706;10.780;2023-06-22T00:45:30;5.55;;;3.55;;
45114;SDS011;30877;43.706;10.780;2023-06-22T00:47:58;5.82;;;3.65;;
45114;SDS011;30877;43.706;10.780;2023-06-22T00:50:27;4.07;;;3.67;;
45114;SDS011;30877;43.706;10.780;2023-06-22T00:53:01;4.57;;;3.47;;
45114;SDS011;30877;43.706;10.780;2023-06-22T00:55:38;5.97;;;3.30;;
45114;SDS011;30877;43.706;10.780;2023-06-22T00:58:12;4.20;;;3.80;;
45114;SDS011;30877;43.706;10.780;2023-06-22T01:00:41;5.38;;;3.58;;
45114;SDS011;30877;43.706;10.780;2023-06-22T01:03:09;6.70;;;3.72;;
45114;SDS011;30877;43.706;10.780;2023-06-22T01:05:38;5.18;;;3.72;;
45114;SDS011;30877;43.706;10.780;2023-06-22T01:08:11;3.72;;;3.03;;
45114;SDS011;30877;43.706;10.780;2023-06-22T01:10:48;6.60;;;3.67;;
45114;SDS011;30877;43.706;10.780;2023-06-22T01:13:26;4.22;;;3.28;;
45114;SDS011;30877;43.706;10.780;2023-06-22T01:16:02;4.85;;;3.53;;
45114;SDS011;30877;43.706;10.780;2023-06-22T01:18:34;5.40;;;3.45;;
45114;SDS011;30877;43.706;10.780;2023-06-22T01:21:07;4.70;;;3.17;;
45114;SDS011;30877;43.706;10.780;2023-06-22T01:23:44;4.13;;;3.35;;
45114;SDS011;30877;43.706;10.780;2023-06-22T01:26:42;3.95;;;3.55;;
45114;SDS011;30877;43.706;10.780;2023-06-22T01:29:16;5.40;;;3.72;;
45114;SDS011;30877;43.706;10.780;2023-06-22T01:31:47;6.80;;;3.85;;
45114;SDS011;30877;43.706;10.780;2023-06-22T01:34:18;7.38;;;3.47;;
45114;SDS011;30877;43.706;10.780;2023-06-22T01:36:47;4.88;;;3.72;;
45114;SDS011;30877;43.706;10.780;2023-06-22T01:39:17;4.32;;;3.65;;
45114;SDS011;30877;43.706;10.780;2023-06-22T01:41:47;5.25;;;3.20;;
45114;SDS011;30877;43.706;10.780;2023-06-22T01:44:18;4.68;;;3.20;;
45114;SDS011;30877;43.706;10.780;2023-06-22T01:46:46;4.80;;;3.20;;
45114;SDS011;30877;43.706;10.780;2023-06-22T01:49:19;4.35;;;3.55;;
45114;SDS011;30877;43.706;10.780;2023-06-22T01:51:47;3.92;;;3.00;;
45114;SDS011;30877;43.706;10.780;2023-06-22T01:54:15;4.10;;;3.22;;
45114;SDS011;30877;43.706;10.780;2023-06-22T01:56:46;5.68;;;3.35;;
45114;SDS011;30877;43.706;10.780;2023-06-22T01:59:15;6.40;;;3.50;;
45114;SDS011;30877;43.706;10.780;2023-06-22T02:04:22;6.97;;;3.00;;
45114;SDS011;30877;43.706;10.780;2023-06-22T02:06:55;4.20;;;3.80;;
45114;SDS011;30877;43.706;10.780;2023-06-22T02:09:28;6.18;;;3.88;;
45114;SDS011;30877;43.706;10.780;2023-06-22T02:11:59;7.65;;;3.60;;
45114;SDS011;30877;43.706;10.780;2023-06-22T02:14:30;4.90;;;3.33;;
45114;SDS011;30877;43.706;10.780;2023-06-22T02:17:00;4.55;;;3.28;;
45114;SDS011;30877;43.706;10.780;2023-06-22T02:19:28;3.92;;;3.03;;
45114;SDS011;30877;43.706;10.780;2023-06-22T02:22:00;3.67;;;3.28;;
45114;SDS011;30877;43.706;10.780;2023-06-22T02:24:28;4.93;;;3.38;;
45114;SDS011;30877;43.706;10.780;2023-06-22T02:26:59;4.55;;;3.60;;
45114;SDS011;30877;43.706;10.780;2023-06-22T02:29:27;6.60;;;3.55;;
45114;SDS011;30877;43.706;10.780;2023-06-22T02:31:57;4.22;;;3.30;;
45114;SDS011;30877;43.706;10.780;2023-06-22T02:34:25;6.10;;;3.63;;
45114;SDS011;30877;43.706;10.780;2023-06-22T02:36:53;7.10;;;3.65;;
45114;SDS011;30877;43.706;10.780;2023-06-22T02:39:22;4.82;;;3.60;;
45114;SDS011;30877;43.706;10.780;2023-06-22T02:41:51;5.07;;;3.40;;
45114;SDS011;30877;43.706;10.780;2023-06-22T02:44:21;4.55;;;3.38;;
45114;SDS011;30877;43.706;10.780;2023-06-22T02:46:49;5.82;;;3.90;;
45114;SDS011;30877;43.706;10.780;2023-06-22T02:49:19;5.20;;;3.58;;
45114;SDS011;30877;43.706;10.780;2023-06-22T02:51:48;4.93;;;3.53;;
45114;SDS011;30877;43.706;10.780;2023-06-22T02:54:19;6.38;;;3.28;;
45114;SDS011;30877;43.706;10.780;2023-06-22T02:56:51;4.40;;;3.13;;
45114;SDS011;30877;43.706;10.780;2023-06-22T02:59:31;5.70;;;3.33;;
45114;SDS011;30877;43.706;10.780;2023-06-22T03:02:09;4.80;;;3.33;;
45114;SDS011;30877;43.706;10.780;2023-06-22T03:04:40;3.97;;;3.45;;
45114;SDS011;30877;43.706;10.780;2023-06-22T03:07:09;7.57;;;3.60;;
45114;SDS011;30877;43.706;10.780;2023-06-22T03:09:37;5.32;;;3.65;;
45114;SDS011;30877;43.706;10.780;2023-06-22T03:12:06;5.43;;;3.80;;
45114;SDS011;30877;43.706;10.780;2023-06-22T03:17:10;7.15;;;3.78;;
45114;SDS011;30877;43.706;10.780;2023-06-22T03:19:40;5.25;;;3.13;;
45114;SDS011;30877;43.706;10.780;2023-06-22T03:22:08;7.30;;;3.88;;
45114;SDS011;30877;43.706;10.780;2023-06-22T03:24:39;6.70;;;3.88;;
45114;SDS011;30877;43.706;10.780;2023-06-22T03:27:07;5.68;;;4.05;;
45114;SDS011;30877;43.706;10.780;2023-06-22T03:29:35;3.80;;;3.05;;
45114;SDS011;30877;43.706;10.780;2023-06-22T03:32:03;5.38;;;3.58;;
45114;SDS011;30877;43.706;10.780;2023-06-22T03:34:33;6.07;;;3.38;;
45114;SDS011;30877;43.706;10.780;2023-06-22T03:37:04;4.88;;;3.78;;
45114;SDS011;30877;43.706;10.780;2023-06-22T03:39:32;4.60;;;3.33;;
45114;SDS011;30877;43.706;10.780;2023-06-22T03:42:00;6.65;;;4.05;;
45114;SDS011;30877;43.706;10.780;2023-06-22T03:44:28;4.20;;;3.67;;
45114;SDS011;30877;43.706;10.780;2023-06-22T03:46:56;4.72;;;3.80;;
45114;SDS011;30877;43.706;10.780;2023-06-22T03:49:24;6.00;;;3.60;;
45114;SDS011;30877;43.706;10.780;2023-06-22T03:51:52;7.25;;;3.95;;
45114;SDS011;30877;43.706;10.780;2023-06-22T03:54:21;6.18;;;3.53;;
45114;SDS011;30877;43.706;10.780;2023-06-22T03:56:49;4.38;;;3.33;;
45114;SDS011;30877;43.706;10.780;2023-06-22T03:59:17;4.57;;;3.28;;
45114;SDS011;30877;43.706;10.780;2023-06-22T04:01:45;4.70;;;3.42;;
45114;SDS011;30877;43.706;10.780;2023-06-22T04:04:13;7.63;;;3.50;;
45114;SDS011;30877;43.706;10.780;2023-06-22T04:06:41;4.93;;;2.97;;
45114;SDS011;30877;43.706;10.780;2023-06-22T04:09:10;5.97;;;3.38;;
45114;SDS011;30877;43.706;10.780;2023-06-22T04:11:39;4.40;;;3.08;;
45114;SDS011;30877;43.706;10.780;2023-06-22T04:14:07;4.32;;;3.13;;
45114;SDS011;30877;43.706;10.780;2023-06-22T04:16:35;4.65;;;4.10;;
45114;SDS011;30877;43.706;10.780;2023-06-22T04:19:03;6.03;;;3.72;;
45114;SDS011;30877;43.706;10.780;2023-06-22T04:21:36;4.10;;;3.45;;
45114;SDS011;30877;43.706;10.780;2023-06-22T04:24:04;5.10;;;3.17;;
45114;SDS011;30877;43.706;10.780;2023-06-22T04:26:33;5.57;;;3.50;;
45114;SDS011;30877;43.706;10.780;2023-06-22T04:29:05;5.53;;;3.85;;
45114;SDS011;30877;43.706;10.780;2023-06-22T04:31:32;4.43;;;3.20;;
45114;SDS011;30877;43.706;10.780;2023-06-22T04:34:04;5.32;;;4.25;;
45114;SDS011;30877;43.706;10.780;2023-06-22T04:36:36;7.28;;;4.25;;
45114;SDS011;30877;43.706;10.780;2023-06-22T04:39:05;5.65;;;4.97;;
45114;SDS011;30877;43.706;10.780;2023-06-22T04:41:34;7.07;;;5.13;;
45114;SDS011;30877;43.706;10.780;2023-06-22T04:44:12;9.68;;;5.82;;
45114;SDS011;30877;43.706;10.780;2023-06-22T04:46:51;9.82;;;6.88;;
45114;SDS011;30877;43.706;10.780;2023-06-22T04:49:27;10.93;;;6.93;;
45114;SDS011;30877;43.706;10.780;2023-06-22T04:52:03;9.63;;;6.27;;
45114;SDS011;30877;43.706;10.780;2023-06-22T04:54:32;9.70;;;6.28;;
45114;SDS011;30877;43.706;10.780;2023-06-22T04:57:01;9.27;;;5.30;;
45114;SDS011;30877;43.706;10.780;2023-06-22T04:59:31;6.05;;;4.18;;
45114;SDS011;30877;43.706;10.780;2023-06-22T05:02:00;5.88;;;4.00;;
45114;SDS011;30877;43.706;10.780;2023-06-22T05:04:29;10.32;;;4.15;;
45114;SDS011;30877;43.706;10.780;2023-06-22T05:07:03;10.98;;;3.80;;
45114;SDS011;30877;43.706;10.780;2023-06-22T05:09:31;4.80;;;3.80;;
45114;SDS011;30877;43.706;10.780;2023-06-22T05:12:01;3.92;;;3.47;;
45114;SDS011;30877;43.706;10.780;2023-06-22T05:14:36;4.47;;;4.03;;
45114;SDS011;30877;43.706;10.780;2023-06-22T05:17:04;6.85;;;3.90;;
45114;SDS011;30877;43.706;10.780;2023-06-22T05:19:42;5.63;;;3.47;;
45114;SDS011;30877;43.706;10.780;2023-06-22T05:22:12;4.82;;;3.25;;
45114;SDS011;30877;43.706;10.780;2023-06-22T05:24:40;7.75;;;3.75;;
45114;SDS011;30877;43.706;10.780;2023-06-22T05:27:08;6.38;;;3.40;;
45114;SDS011;30877;43.706;10.780;2023-06-22T05:29:37;5.10;;;3.30;;
45114;SDS011;30877;43.706;10.780;2023-06-22T05:32:06;5.88;;;3.60;;
45114;SDS011;30877;43.706;10.780;2023-06-22T05:34:34;5.68;;;3.63;;
45114;SDS011;30877;43.706;10.780;2023-06-22T05:37:02;7.13;;;3.38;;
45114;SDS011;30877;43.706;10.780;2023-06-22T05:39:31;5.47;;;3.97;;
45114;SDS011;30877;43.706;10.780;2023-06-22T05:41:59;7.78;;;4.13;;
45114;SDS011;30877;43.706;10.780;2023-06-22T05:44:28;8.73;;;3.88;;
45114;SDS011;30877;43.706;10.780;2023-06-22T05:46:57;5.70;;;3.90;;
45114;SDS011;30877;43.706;10.780;2023-06-22T05:49:25;5.55;;;3.70;;
45114;SDS011;30877;43.706;10.780;2023-06-22T05:51:59;8.10;;;3.67;;
45114;SDS011;30877;43.706;10.780;2023-06-22T05:54:27;11.02;;;4.57;;
45114;SDS011;30877;43.706;10.780;2023-06-22T05:56:55;8.40;;;3.88;;
45114;SDS011;30877;43.706;10.780;2023-06-22T05:59:23;5.57;;;3.83;;
45114;SDS011;30877;43.706;10.780;2023-06-22T06:01:52;6.32;;;3.55;;
45114;SDS011;30877;43.706;10.780;2023-06-22T06:04:21;5.53;;;3.95;;
45114;SDS011;30877;43.706;10.780;2023-06-22T06:06:49;5.50;;;4.10;;
45114;SDS011;30877;43.706;10.780;2023-06-22T06:09:17;6.70;;;4.13;;
45114;SDS011;30877;43.706;10.780;2023-06-22T06:11:44;5.93;;;4.28;;
45114;SDS011;30877;43.706;10.780;2023-06-22T06:14:12;5.40;;;4.18;;
45114;SDS011;30877;43.706;10.780;2023-06-22T06:16:40;8.13;;;4.63;;
45114;SDS011;30877;43.706;10.780;2023-06-22T06:19:08;5.80;;;4.00;;
45114;SDS011;30877;43.706;10.780;2023-06-22T06:21:37;8.95;;;4.32;;
45114;SDS011;30877;43.706;10.780;2023-06-22T06:24:05;7.95;;;5.00;;
45114;SDS011;30877;43.706;10.780;2023-06-22T06:26:33;9.00;;;5.13;;
45114;SDS011;30877;43.706;10.780;2023-06-22T06:29:02;7.72;;;5.32;;
45114;SDS011;30877;43.706;10.780;2023-06-22T06:31:30;9.25;;;5.88;;
45114;SDS011;30877;43.706;10.780;2023-06-22T06:33:58;10.85;;;6.05;;
45114;SDS011;30877;43.706;10.780;2023-06-22T06:36:27;10.48;;;6.63;;
45114;SDS011;30877;43.706;10.780;2023-06-22T06:38:56;13.10;;;8.05;;
45114;SDS011;30877;43.706;10.780;2023-06-22T06:41:25;11.75;;;7.45;;
45114;SDS011;30877;43.706;10.780;2023-06-22T06:43:53;10.63;;;7.47;;
45114;SDS011;30877;43.706;10.780;2023-06-22T06:46:21;12.38;;;7.60;;
45114;SDS011;30877;43.706;10.780;2023-06-22T06:48:53;9.70;;;6.75;;
45114;SDS011;30877;43.706;10.780;2023-06-22T06:51:27;10.05;;;6.35;;
45114;SDS011;30877;43.706;10.780;2023-06-22T06:53:56;7.75;;;5.50;;
45114;SDS011;30877;43.706;10.780;2023-06-22T06:56:27;9.90;;;4.95;;
45114;SDS011;30877;43.706;10.780;2023-06-22T06:58:57;9.13;;;5.10;;
45114;SDS011;30877;43.706;10.780;2023-06-22T07:01:29;6.00;;;5.03;;
45114;SDS011;30877;43.706;10.780;2023-06-22T07:04:01;10.25;;;4.47;;
45114;SDS011;30877;43.706;10.780;2023-06-22T07:06:29;7.13;;;4.80;;
45114;SDS011;30877;43.706;10.780;2023-06-22T07:09:00;9.05;;;4.35;;
45114;SDS011;30877;43.706;10.780;2023-06-22T07:11:30;7.72;;;4.80;;
45114;SDS011;30877;43.706;10.780;2023-06-22T07:13:58;7.68;;;4.60;;
45114;SDS011;30877;43.706;10.780;2023-06-22T07:16:29;5.55;;;4.40;;
45114;SDS011;30877;43.706;10.780;2023-06-22T07:18:58;6.20;;;4.82;;
45114;SDS011;30877;43.706;10.780;2023-06-22T07:21:27;10.05;;;5.50;;
45114;SDS011;30877;43.706;10.780;2023-06-22T07:23:55;10.52;;;5.05;;
45114;SDS011;30877;43.706;10.780;2023-06-22T07:26:25;8.25;;;4.95;;
45114;SDS011;30877;43.706;10.780;2023-06-22T07:28:53;8.10;;;5.28;;
45114;SDS011;30877;43.706;10.780;2023-06-22T07:31:23;5.95;;;4.90;;
45114;SDS011;30877;43.706;10.780;2023-06-22T07:33:51;7.95;;;5.40;;
45114;SDS011;30877;43.706;10.780;2023-06-22T07:36:20;5.75;;;4.40;;
45114;SDS011;30877;43.706;10.780;2023-06-22T07:38:48;5.93;;;5.18;;
45114;SDS011;30877;43.706;10.780;2023-06-22T07:41:16;6.80;;;5.22;;
45114;SDS011;30877;43.706;10.780;2023-06-22T07:43:46;12.63;;;5.38;;
45114;SDS011;30877;43.706;10.780;2023-06-22T07:46:14;8.27;;;4.90;;
45114;SDS011;30877;43.706;10.780;2023-06-22T07:48:43;7.03;;;5.43;;
45114;SDS011;30877;43.706;10.780;2023-06-22T07:51:11;9.02;;;5.38;;
45114;SDS011;30877;43.706;10.780;2023-06-22T07:53:40;8.00;;;5.20;;
45114;SDS011;30877;43.706;10.780;2023-06-22T07:56:09;7.93;;;5.47;;
45114;SDS011;30877;43.706;10.780;2023-06-22T07:58:38;6.63;;;5.13;;
45114;SDS011;30877;43.706;10.780;2023-06-22T08:01:08;7.22;;;5.03;;
45114;SDS011;30877;43.706;10.780;2023-06-22T08:03:36;7.60;;;4.80;;
45114;SDS011;30877;43.706;10.780;2023-06-22T08:06:05;7.90;;;5.38;;
45114;SDS011;30877;43.706;10.780;2023-06-22T08:08:35;7.10;;;5.03;;
45114;SDS011;30877;43.706;10.780;2023-06-22T08:11:04;9.70;;;5.40;;
45114;SDS011;30877;43.706;10.780;2023-06-22T08:13:32;8.88;;;5.18;;
45114;SDS011;30877;43.706;10.780;2023-06-22T08:16:01;7.32;;;4.95;;
45114;SDS011;30877;43.706;10.780;2023-06-22T08:18:30;8.40;;;5.00;;
45114;SDS011;30877;43.706;10.780;2023-06-22T08:20:59;10.13;;;5.22;;
45114;SDS011;30877;43.706;10.780;2023-06-22T08:23:29;8.40;;;5.07;;
45114;SDS011;30877;43.706;10.780;2023-06-22T08:25:57;7.72;;;4.80;;
45114;SDS011;30877;43.706;10.780;2023-06-22T08:28:26;7.28;;;4.57;;
45114;SDS011;30877;43.706;10.780;2023-06-22T08:30:57;8.02;;;5.03;;
45114;SDS011;30877;43.706;10.780;2023-06-22T08:33:25;9.32;;;4.70;;
45114;SDS011;30877;43.706;10.780;2023-06-22T08:35:57;8.70;;;4.50;;
45114;SDS011;30877;43.706;10.780;2023-06-22T08:38:28;7.95;;;4.95;;
45114;SDS011;30877;43.706;10.780;2023-06-22T08:40:56;6.50;;;4.75;;
45114;SDS011;30877;43.706;10.780;2023-06-22T08:43:24;8.45;;;4.82;;
45114;SDS011;30877;43.706;10.780;2023-06-22T08:45:52;8.60;;;4.85;;
45114;SDS011;30877;43.706;10.780;2023-06-22T08:48:21;8.00;;;4.65;;
45114;SDS011;30877;43.706;10.780;2023-06-22T08:50:49;5.15;;;4.60;;
45114;SDS011;30877;43.706;10.780;2023-06-22T08:53:18;7.53;;;4.80;;
45114;SDS011;30877;43.706;10.780;2023-06-22T08:55:47;10.57;;;4.78;;
45114;SDS011;30877;43.706;10.780;2023-06-22T08:58:15;7.63;;;4.40;;
45114;SDS011;30877;43.706;10.780;2023-06-22T09:00:43;7.47;;;4.90;;
45114;SDS011;30877;43.706;10.780;2023-06-22T09:03:11;8.18;;;4.50;;
45114;SDS011;30877;43.706;10.780;2023-06-22T09:05:40;8.55;;;4.35;;
45114;SDS011;30877;43.706;10.780;2023-06-22T09:08:08;4.65;;;4.10;;
45114;SDS011;30877;43.706;10.780;2023-06-22T09:10:38;9.10;;;4.55;;
45114;SDS011;30877;43.706;10.780;2023-06-22T09:13:06;6.15;;;4.13;;
45114;SDS011;30877;43.706;10.780;2023-06-22T09:15:34;9.57;;;4.45;;
45114;SDS011;30877;43.706;10.780;2023-06-22T09:18:02;8.43;;;4.32;;
45114;SDS011;30877;43.706;10.780;2023-06-22T09:20:31;4.57;;;3.60;;
45114;SDS011;30877;43.706;10.780;2023-06-22T09:22:59;5.28;;;3.53;;
45114;SDS011;30877;43.706;10.780;2023-06-22T09:25:27;5.10;;;3.88;;
45114;SDS011;30877;43.706;10.780;2023-06-22T09:27:58;9.35;;;3.97;;
45114;SDS011;30877;43.706;10.780;2023-06-22T09:30:26;4.43;;;3.25;;
45114;SDS011;30877;43.706;10.780;2023-06-22T09:32:54;5.57;;;3.78;;
45114;SDS011;30877;43.706;10.780;2023-06-22T09:35:23;7.57;;;3.58;;
45114;SDS011;30877;43.706;10.780;2023-06-22T09:37:51;4.57;;;3.50;;
45114;SDS011;30877;43.706;10.780;2023-06-22T09:40:22;5.28;;;3.60;;
45114;SDS011;30877;43.706;10.780;2023-06-22T09:42:50;8.85;;;3.50;;
45114;SDS011;30877;43.706;10.780;2023-06-22T09:45:19;6.40;;;3.70;;
45114;SDS011;30877;43.706;10.780;2023-06-22T09:47:47;5.07;;;3.55;;
45114;SDS011;30877;43.706;10.780;2023-06-22T09:50:16;5.40;;;3.47;;
45114;SDS011;30877;43.706;10.780;2023-06-22T09:52:44;8.18;;;3.90;;
45114;SDS011;30877;43.706;10.780;2023-06-22T09:55:17;7.30;;;3.63;;
45114;SDS011;30877;43.706;10.780;2023-06-22T09:57:55;7.90;;;3.53;;
45114;SDS011;30877;43.706;10.780;2023-06-22T10:00:44;5.13;;;3.20;;
45114;SDS011;30877;43.706;10.780;2023-06-22T10:03:12;3.50;;;3.20;;
45114;SDS011;30877;43.706;10.780;2023-06-22T10:05:41;5.07;;;3.72;;
45114;SDS011;30877;43.706;10.780;2023-06-22T10:08:12;6.03;;;3.53;;
45114;SDS011;30877;43.706;10.780;2023-06-22T10:10:41;7.47;;;3.80;;
45114;SDS011;30877;43.706;10.780;2023-06-22T10:13:09;5.93;;;3.45;;
45114;SDS011;30877;43.706;10.780;2023-06-22T10:15:38;4.15;;;3.22;;
45114;SDS011;30877;43.706;10.780;2023-06-22T10:18:08;7.22;;;2.90;;
45114;SDS011;30877;43.706;10.780;2023-06-22T10:20:36;7.30;;;3.83;;
45114;SDS011;30877;43.706;10.780;2023-06-22T10:23:05;4.10;;;3.33;;
45114;SDS011;30877;43.706;10.780;2023-06-22T10:25:33;3.40;;;3.08;;
45114;SDS011;30877;43.706;10.780;2023-06-22T10:28:01;4.15;;;3.05;;
45114;SDS011;30877;43.706;10.780;2023-06-22T10:30:29;5.38;;;3.20;;
45114;SDS011;30877;43.706;10.780;2023-06-22T10:32:58;4.25;;;3.13;;
45114;SDS011;30877;43.706;10.780;2023-06-22T10:35:27;3.83;;;2.88;;
45114;SDS011;30877;43.706;10.780;2023-06-22T10:37:56;3.78;;;2.42;;
45114;SDS011;30877;43.706;10.780;2023-06-22T10:40:24;3.50;;;2.55;;
45114;SDS011;30877;43.706;10.780;2023-06-22T10:42:53;4.82;;;2.55;;
45114;SDS011;30877;43.706;10.780;2023-06-22T10:45:21;3.55;;;2.78;;
45114;SDS011;30877;43.706;10.780;2023-06-22T10:47:49;3.80;;;2.35;;
45114;SDS011;30877;43.706;10.780;2023-06-22T10:50:17;3.03;;;2.45;;
45114;SDS011;30877;43.706;10.780;2023-06-22T10:52:48;5.20;;;2.47;;
45114;SDS011;30877;43.706;10.780;2023-06-22T10:55:17;5.63;;;2.97;;
45114;SDS011;30877;43.706;10.780;2023-06-22T10:57:45;4.95;;;2.78;;
45114;SDS011;30877;43.706;10.780;2023-06-22T11:00:14;4.05;;;2.50;;
45114;SDS011;30877;43.706;10.780;2023-06-22T11:02:43;4.30;;;2.88;;
45114;SDS011;30877;43.706;10.780;2023-06-22T11:05:12;5.88;;;2.80;;
45114;SDS011;30877;43.706;10.780;2023-06-22T11:07:41;7.07;;;3.03;;
45114;SDS011;30877;43.706;10.780;2023-06-22T11:10:17;5.80;;;3.22;;
45114;SDS011;30877;43.706;10.780;2023-06-22T11:13:07;4.05;;;2.60;;
45114;SDS011;30877;43.706;10.780;2023-06-22T11:15:38;3.92;;;2.53;;
45114;SDS011;30877;43.706;10.780;2023-06-22T11:18:07;4.25;;;2.90;;
45114;SDS011;30877;43.706;10.780;2023-06-22T11:20:35;4.72;;;3.03;;
45114;SDS011;30877;43.706;10.780;2023-06-22T11:23:06;5.07;;;2.63;;
45114;SDS011;30877;43.706;10.780;2023-06-22T11:25:35;5.97;;;3.35;;
45114;SDS011;30877;43.706;10.780;2023-06-22T11:28:05;3.40;;;3.08;;
45114;SDS011;30877;43.706;10.780;2023-06-22T11:30:33;5.88;;;3.03;;
45114;SDS011;30877;43.706;10.780;2023-06-22T11:33:01;6.18;;;3.20;;
45114;SDS011;30877;43.706;10.780;2023-06-22T11:35:29;6.72;;;3.38;;
45114;SDS011;30877;43.706;10.780;2023-06-22T11:37:58;4.75;;;2.70;;
45114;SDS011;30877;43.706;10.780;2023-06-22T11:40:26;7.25;;;3.20;;
45114;SDS011;30877;43.706;10.780;2023-06-22T11:42:56;6.82;;;3.03;;
45114;SDS011;30877;43.706;10.780;2023-06-22T11:45:24;4.50;;;2.67;;
45114;SDS011;30877;43.706;10.780;2023-06-22T11:47:53;5.15;;;2.90;;
45114;SDS011;30877;43.706;10.780;2023-06-22T11:50:21;7.45;;;3.30;;
45114;SDS011;30877;43.706;10.780;2023-06-22T11:52:49;3.22;;;2.85;;
45114;SDS011;30877;43.706;10.780;2023-06-22T11:55:20;6.55;;;3.33;;
45114;SDS011;30877;43.706;10.780;2023-06-22T11:57:54;3.42;;;3.13;;
45114;SDS011;30877;43.706;10.780;2023-06-22T12:00:27;3.97;;;3.05;;
45114;SDS011;30877;43.706;10.780;2023-06-22T12:02:56;5.05;;;3.28;;
45114;SDS011;30877;43.706;10.780;2023-06-22T12:05:27;4.43;;;3.30;;
45114;SDS011;30877;43.706;10.780;2023-06-22T12:07:55;6.60;;;3.15;;
45114;SDS011;30877;43.706;10.780;2023-06-22T12:10:24;4.47;;;3.10;;
45114;SDS011;30877;43.706;10.780;2023-06-22T12:12:53;7.30;;;3.47;;
45114;SDS011;30877;43.706;10.780;2023-06-22T12:15:23;4.03;;;3.05;;
45114;SDS011;30877;43.706;10.780;2023-06-22T12:17:51;5.93;;;3.30;;
45114;SDS011;30877;43.706;10.780;2023-06-22T12:20:19;5.15;;;3.17;;
45114;SDS011;30877;43.706;10.780;2023-06-22T12:22:49;3.67;;;2.85;;
45114;SDS011;30877;43.706;10.780;2023-06-22T12:25:19;6.03;;;2.70;;
45114;SDS011;30877;43.706;10.780;2023-06-22T12:27:47;4.40;;;3.20;;
45114;SDS011;30877;43.706;10.780;2023-06-22T12:30:15;5.78;;;3.00;;
45114;SDS011;30877;43.706;10.780;2023-06-22T12:32:45;5.07;;;2.78;;
45114;SDS011;30877;43.706;10.780;2023-06-22T12:35:13;5.10;;;3.05;;
45114;SDS011;30877;43.706;10.780;2023-06-22T12:37:42;6.85;;;3.35;;
45114;SDS011;30877;43.706;10.780;2023-06-22T12:40:10;3.65;;;3.17;;
45114;SDS011;30877;43.706;10.780;2023-06-22T12:42:39;5.78;;;3.70;;
45114;SDS011;30877;43.706;10.780;2023-06-22T12:45:09;7.53;;;3.83;;
45114;SDS011;30877;43.706;10.780;2023-06-22T12:47:37;5.57;;;3.15;;
45114;SDS011;30877;43.706;10.780;2023-06-22T12:50:08;5.18;;;3.22;;
45114;SDS011;30877;43.706;10.780;2023-06-22T12:52:36;5.20;;;2.90;;
45114;SDS011;30877;43.706;10.780;2023-06-22T12:55:07;8.57;;;3.08;;
45114;SDS011;30877;43.706;10.780;2023-06-22T12:57:35;4.65;;;3.47;;
45114;SDS011;30877;43.706;10.780;2023-06-22T13:00:04;7.03;;;3.55;;
45114;SDS011;30877;43.706;10.780;2023-06-22T13:02:40;5.43;;;3.35;;
45114;SDS011;30877;43.706;10.780;2023-06-22T13:05:11;5.20;;;3.20;;
45114;SDS011;30877;43.706;10.780;2023-06-22T13:07:39;6.00;;;3.50;;
45114;SDS011;30877;43.706;10.780;2023-06-22T13:10:09;7.43;;;3.40;;
45114;SDS011;30877;43.706;10.780;2023-06-22T13:12:37;9.52;;;3.30;;
45114;SDS011;30877;43.706;10.780;2023-06-22T13:15:06;4.18;;;3.20;;
45114;SDS011;30877;43.706;10.780;2023-06-22T13:17:34;7.63;;;3.00;;
45114;SDS011;30877;43.706;10.780;2023-06-22T13:20:03;5.07;;;2.90;;
45114;SDS011;30877;43.706;10.780;2023-06-22T13:22:34;7.57;;;3.67;;
45114;SDS011;30877;43.706;10.780;2023-06-22T13:25:10;7.70;;;3.50;;
45114;SDS011;30877;43.706;10.780;2023-06-22T13:27:39;6.43;;;3.20;;
45114;SDS011;30877;43.706;10.780;2023-06-22T13:30:08;11.85;;;3.55;;
45114;SDS011;30877;43.706;10.780;2023-06-22T13:32:40;7.25;;;3.47;;
45114;SDS011;30877;43.706;10.780;2023-06-22T13:35:11;8.68;;;3.20;;
45114;SDS011;30877;43.706;10.780;2023-06-22T13:37:41;7.97;;;3.28;;
45114;SDS011;30877;43.706;10.780;2023-06-22T13:40:09;6.38;;;2.92;;
45114;SDS011;30877;43.706;10.780;2023-06-22T13:42:38;8.75;;;3.10;;
45114;SDS011;30877;43.706;10.780;2023-06-22T13:45:07;7.15;;;3.47;;
45114;SDS011;30877;43.706;10.780;2023-06-22T13:47:35;7.25;;;3.67;;
45114;SDS011;30877;43.706;10.780;2023-06-22T13:50:04;11.10;;;3.38;;
45114;SDS011;30877;43.706;10.780;2023-06-22T13:52:33;8.52;;;3.25;;
45114;SDS011;30877;43.706;10.780;2023-06-22T13:55:02;8.55;;;3.00;;
45114;SDS011;30877;43.706;10.780;2023-06-22T13:57:32;8.18;;;3.33;;
45114;SDS011;30877;43.706;10.780;2023-06-22T14:00:01;7.32;;;3.10;;
45114;SDS011;30877;43.706;10.780;2023-06-22T14:02:37;4.63;;;3.30;;
45114;SDS011;30877;43.706;10.780;2023-06-22T14:05:05;10.60;;;3.30;;
45114;SDS011;30877;43.706;10.780;2023-06-22T14:07:40;3.60;;;2.70;;
45114;SDS011;30877;43.706;10.780;2023-06-22T14:10:19;9.63;;;3.80;;
45114;SDS011;30877;43.706;10.780;2023-06-22T14:13:18;8.60;;;3.65;;
45114;SDS011;30877;43.706;10.780;2023-06-22T14:15:46;5.38;;;2.90;;
45114;SDS011;30877;43.706;10.780;2023-06-22T14:18:15;9.95;;;3.53;;
45114;SDS011;30877;43.706;10.780;2023-06-22T14:20:43;7.75;;;3.38;;
45114;SDS011;30877;43.706;10.780;2023-06-22T14:23:11;7.07;;;3.30;;
45114;SDS011;30877;43.706;10.780;2023-06-22T14:25:41;8.18;;;2.97;;
45114;SDS011;30877;43.706;10.780;2023-06-22T14:28:09;8.50;;;3.65;;
45114;SDS011;30877;43.706;10.780;2023-06-22T14:30:36;7.47;;;3.20;;
45114;SDS011;30877;43.706;10.780;2023-06-22T14:33:04;7.32;;;3.70;;
45114;SDS011;30877;43.706;10.780;2023-06-22T14:35:32;8.80;;;3.25;;
45114;SDS011;30877;43.706;10.780;2023-06-22T14:38:00;5.82;;;3.15;;
45114;SDS011;30877;43.706;10.780;2023-06-22T14:40:28;7.13;;;3.20;;
45114;SDS011;30877;43.706;10.780;2023-06-22T14:43:03;10.88;;;4.00;;
45114;SDS011;30877;43.706;10.780;2023-06-22T14:45:31;9.93;;;3.83;;
45114;SDS011;30877;43.706;10.780;2023-06-22T14:47:59;9.88;;;3.70;;
45114;SDS011;30877;43.706;10.780;2023-06-22T14:50:27;10.13;;;3.67;;
45114;SDS011;30877;43.706;10.780;2023-06-22T14:52:55;5.55;;;3.58;;
45114;SDS011;30877;43.706;10.780;2023-06-22T14:55:24;8.18;;;3.85;;
45114;SDS011;30877;43.706;10.780;2023-06-22T14:57:52;8.95;;;3.97;;
45114;SDS011;30877;43.706;10.780;2023-06-22T15:00:21;8.05;;;4.07;;